Godman Army Air Field
KFTK : now visible

Airfield :











YOU CAN JOIN US ON...

 
LOGIN :

Register | Disclaimer

   EN    FR    IT 

 









Legend :    VFR   Marginal VFR   IFR   Intensive IFR   Very Intensive IFR
Visi :
Ceiling :
>= 8 km
>= 3000ft
5 to 8 km
1000 to 3000 ft
1500m to 5 km
500 to 1000 ft
800 to 1500m
200 to 500 ft
< 800m
< 200 ft
Symbols :   Thunderstorms  Fog  Heavy snow  Heavy precipitations  Wind > 20 kt






- Airport Elevation : 756 ft


KFTK - Godman Army Air Field

CURRENT METAR :
  • 171203Z AUTO 19012KT 10SM BKN025 BKN032 OVC040 19/16 A2989 RMK AO2 CIG 025V033 SLP119 $

EXPIRED METARs :
  • 171155Z AUTO 19013KT 10SM SCT027 BKN033 BKN041 19/16 A2989 RMK AO2 RAE1057 SLP119 P0000 60045 70047 T01870163 10193 20173 53002 $
  • 171057Z AUTO 21006KT 10SM BKN030 BKN035 BKN044 OVC060 18/17 A2988 RMK AO2 RAE57 SLP115 $
  • 171043Z AUTO 17009KT 10SM -RA FEW024 BKN033 OVC044 18/17 A2986 RMK AO2 RAE20DZB20E23DZB28E29RAB43 SLP108 $
  • 171023Z AUTO 20008KT 10SM BKN033 OVC044 18/17 A2987 RMK AO2 RAE20DZB20E23 SLP111 $
  • 170955Z AUTO 18011KT 9SM +RA BKN038 OVC060 18/17 A2987 RMK AO2 LTG DSNT NE RAB09 SLP111 P0011 T01820167 $
  • 170926Z AUTO 17013G20KT 10SM -RA FEW037 SCT047 OVC060 18/16 A2986 RMK AO2 RAB09 PRESFR SLP107 $
  • 170909Z AUTO 17012KT 10SM -RA BKN039 OVC050 19/16 A2988 RMK AO2 RAB09 SLP114 $
  • 170855Z AUTO 16008KT 10SM BKN039 18/16 A2988 RMK AO2 RAE0759DZB09E11RAB11E51 SLP115 P0006 60027 T01770157 55008 $
  • 170809Z AUTO 14008KT 10SM -DZ FEW044 OVC055 18/16 A2987 RMK AO2 LTG DSNT S-SW RAE0759DZB09 SLP111 $
  • 170755Z AUTO 13010KT 10SM -RA FEW033 OVC055 18/16 A2986 RMK AO2 LTG DSNT SW RAE01DZB18E25RAB25 SLP107 P0002 T01800158 $

TAF TAF KFTK
Valid from the 17 at 11:00 until the 18 at 17:00 UTC


171100Z 1711/1817 21012G18KT 9999 VCSH SCT015 BKN025 OVC045 QNH2987INS
BECMG 1715/1716 23015G25KT 9999 NSW FEW050 510005 QNH2983INS
BECMG 1722/1723 25008KT 9999 SKC QNH2989INS TX28/1721Z TN16/1812Z
KZID FIR / North America



MET'MAP, your aeronautical weather chart ! - Copyright ORBIFLY December 2007 - Disclaimer

ORBIFLY MET'MAP TEAM :

Programming & Development : Alexandra Zaïnal
Original concept : Baudouin d'Aumeries
Technical & hardware support : Manuel Goepfert
Assistance : Marc-Olivier Méhu




SOURCES & CREDITS :

   NOAA       Earth
Advisory